sensor_id;sensor_type;location;lat;lon;timestamp;temperature;humidity
65826;DHT22;52586;-43.152;172.732;2023-09-07T00:00:04;19.10;52.70
65826;DHT22;52586;-43.152;172.732;2023-09-07T00:02:38;19.10;52.60
65826;DHT22;52586;-43.152;172.732;2023-09-07T00:05:09;19.10;52.60
65826;DHT22;52586;-43.152;172.732;2023-09-07T00:07:41;19.20;52.60
65826;DHT22;52586;-43.152;172.732;2023-09-07T00:10:11;19.20;52.50
65826;DHT22;52586;-43.152;172.732;2023-09-07T00:12:44;19.20;52.50
65826;DHT22;52586;-43.152;172.732;2023-09-07T00:15:15;19.20;52.40
65826;DHT22;52586;-43.152;172.732;2023-09-07T00:17:46;19.20;52.30
65826;DHT22;52586;-43.152;172.732;2023-09-07T00:20:19;19.30;52.40
65826;DHT22;52586;-43.152;172.732;2023-09-07T00:22:49;19.30;52.40
65826;DHT22;52586;-43.152;172.732;2023-09-07T00:25:20;19.30;52.30
65826;DHT22;52586;-43.152;172.732;2023-09-07T00:27:52;19.40;52.30
65826;DHT22;52586;-43.152;172.732;2023-09-07T00:30:23;19.40;52.30
65826;DHT22;52586;-43.152;172.732;2023-09-07T00:32:55;19.40;52.20
65826;DHT22;52586;-43.152;172.732;2023-09-07T00:35:25;19.40;52.30
65826;DHT22;52586;-43.152;172.732;2023-09-07T00:37:56;19.40;52.20
65826;DHT22;52586;-43.152;172.732;2023-09-07T00:40:26;19.50;52.20
65826;DHT22;52586;-43.152;172.732;2023-09-07T00:42:59;19.50;52.10
65826;DHT22;52586;-43.152;172.732;2023-09-07T00:45:32;19.50;52.10
65826;DHT22;52586;-43.152;172.732;2023-09-07T00:48:03;19.60;52.10
65826;DHT22;52586;-43.152;172.732;2023-09-07T00:50:34;19.60;52.10
65826;DHT22;52586;-43.152;172.732;2023-09-07T00:53:05;19.60;52.00
65826;DHT22;52586;-43.152;172.732;2023-09-07T00:55:37;19.60;52.00
65826;DHT22;52586;-43.152;172.732;2023-09-07T00:58:09;19.70;52.10
65826;DHT22;52586;-43.152;172.732;2023-09-07T01:00:41;19.70;52.10
65826;DHT22;52586;-43.152;172.732;2023-09-07T01:03:11;19.80;52.10
65826;DHT22;52586;-43.152;172.732;2023-09-07T01:05:49;19.80;52.10
65826;DHT22;52586;-43.152;172.732;2023-09-07T01:08:25;19.80;52.00
65826;DHT22;52586;-43.152;172.732;2023-09-07T01:10:56;19.80;52.00
65826;DHT22;52586;-43.152;172.732;2023-09-07T01:13:29;19.90;51.90
65826;DHT22;52586;-43.152;172.732;2023-09-07T01:15:59;19.90;51.90
65826;DHT22;52586;-43.152;172.732;2023-09-07T01:18:30;19.90;51.90
65826;DHT22;52586;-43.152;172.732;2023-09-07T01:21:03;19.90;51.90
65826;DHT22;52586;-43.152;172.732;2023-09-07T01:23:35;20.00;51.90
65826;DHT22;52586;-43.152;172.732;2023-09-07T01:26:07;20.00;51.80
65826;DHT22;52586;-43.152;172.732;2023-09-07T01:28:39;20.10;51.90
65826;DHT22;52586;-43.152;172.732;2023-09-07T01:31:09;20.10;51.90
65826;DHT22;52586;-43.152;172.732;2023-09-07T01:33:40;20.10;51.80
65826;DHT22;52586;-43.152;172.732;2023-09-07T01:36:11;20.20;51.90
65826;DHT22;52586;-43.152;172.732;2023-09-07T01:38:43;20.20;51.90
65826;DHT22;52586;-43.152;172.732;2023-09-07T01:41:14;20.20;52.00
65826;DHT22;52586;-43.152;172.732;2023-09-07T01:43:44;20.20;52.00
65826;DHT22;52586;-43.152;172.732;2023-09-07T01:46:15;20.30;52.00
65826;DHT22;52586;-43.152;172.732;2023-09-07T01:48:45;20.30;52.00
65826;DHT22;52586;-43.152;172.732;2023-09-07T01:51:16;20.40;52.00
65826;DHT22;52586;-43.152;172.732;2023-09-07T01:53:50;20.40;51.90
65826;DHT22;52586;-43.152;172.732;2023-09-07T01:56:21;20.40;51.90
65826;DHT22;52586;-43.152;172.732;2023-09-07T01:58:52;20.50;51.90
65826;DHT22;52586;-43.152;172.732;2023-09-07T02:01:23;20.50;51.90
65826;DHT22;52586;-43.152;172.732;2023-09-07T02:03:54;20.50;51.90
65826;DHT22;52586;-43.152;172.732;2023-09-07T02:06:25;20.60;52.00
65826;DHT22;52586;-43.152;172.732;2023-09-07T02:08:57;20.60;51.90
65826;DHT22;52586;-43.152;172.732;2023-09-07T02:11:28;20.60;51.90
65826;DHT22;52586;-43.152;172.732;2023-09-07T02:13:58;20.70;51.90
65826;DHT22;52586;-43.152;172.732;2023-09-07T02:16:30;20.70;52.00
65826;DHT22;52586;-43.152;172.732;2023-09-07T02:19:04;20.70;52.00
65826;DHT22;52586;-43.152;172.732;2023-09-07T02:21:35;20.80;52.00
65826;DHT22;52586;-43.152;172.732;2023-09-07T02:24:07;20.80;52.00
65826;DHT22;52586;-43.152;172.732;2023-09-07T02:26:38;20.90;52.10
65826;DHT22;52586;-43.152;172.732;2023-09-07T02:29:13;20.90;52.10
65826;DHT22;52586;-43.152;172.732;2023-09-07T02:31:43;20.90;52.10
65826;DHT22;52586;-43.152;172.732;2023-09-07T02:34:14;21.00;52.10
65826;DHT22;52586;-43.152;172.732;2023-09-07T02:36:44;21.00;52.10
65826;DHT22;52586;-43.152;172.732;2023-09-07T02:39:17;21.10;52.20
65826;DHT22;52586;-43.152;172.732;2023-09-07T02:41:48;21.10;52.20
65826;DHT22;52586;-43.152;172.732;2023-09-07T02:44:18;21.10;52.20
65826;DHT22;52586;-43.152;172.732;2023-09-07T02:46:49;21.20;52.20
65826;DHT22;52586;-43.152;172.732;2023-09-07T02:49:19;21.20;52.30
65826;DHT22;52586;-43.152;172.732;2023-09-07T02:51:50;21.30;52.40
65826;DHT22;52586;-43.152;172.732;2023-09-07T02:54:23;21.30;52.40
65826;DHT22;52586;-43.152;172.732;2023-09-07T02:56:53;21.40;52.50
65826;DHT22;52586;-43.152;172.732;2023-09-07T02:59:24;21.40;52.40
65826;DHT22;52586;-43.152;172.732;2023-09-07T03:01:54;21.40;52.50
65826;DHT22;52586;-43.152;172.732;2023-09-07T03:04:25;21.50;52.50
65826;DHT22;52586;-43.152;172.732;2023-09-07T03:06:56;21.50;52.50
65826;DHT22;52586;-43.152;172.732;2023-09-07T03:09:28;21.60;52.60
65826;DHT22;52586;-43.152;172.732;2023-09-07T03:11:59;21.60;52.50
65826;DHT22;52586;-43.152;172.732;2023-09-07T03:14:29;21.70;52.50
65826;DHT22;52586;-43.152;172.732;2023-09-07T03:17:02;21.70;52.40
65826;DHT22;52586;-43.152;172.732;2023-09-07T03:19:33;21.70;52.40
65826;DHT22;52586;-43.152;172.732;2023-09-07T03:22:06;21.80;52.30
65826;DHT22;52586;-43.152;172.732;2023-09-07T03:24:39;21.80;52.30
65826;DHT22;52586;-43.152;172.732;2023-09-07T03:27:09;21.80;52.20
65826;DHT22;52586;-43.152;172.732;2023-09-07T03:29:40;21.90;52.20
65826;DHT22;52586;-43.152;172.732;2023-09-07T03:32:11;22.00;52.10
65826;DHT22;52586;-43.152;172.732;2023-09-07T03:34:42;22.00;52.00
65826;DHT22;52586;-43.152;172.732;2023-09-07T03:37:15;22.00;51.90
65826;DHT22;52586;-43.152;172.732;2023-09-07T03:39:48;22.10;51.90
65826;DHT22;52586;-43.152;172.732;2023-09-07T03:42:18;22.10;51.80
65826;DHT22;52586;-43.152;172.732;2023-09-07T03:44:49;22.10;51.70
65826;DHT22;52586;-43.152;172.732;2023-09-07T03:47:20;22.20;51.60
65826;DHT22;52586;-43.152;172.732;2023-09-07T03:49:50;22.20;51.50
65826;DHT22;52586;-43.152;172.732;2023-09-07T03:52:22;22.20;51.50
65826;DHT22;52586;-43.152;172.732;2023-09-07T03:54:57;22.20;51.40
65826;DHT22;52586;-43.152;172.732;2023-09-07T03:57:28;22.30;51.30
65826;DHT22;52586;-43.152;172.732;2023-09-07T03:59:59;22.30;51.30
65826;DHT22;52586;-43.152;172.732;2023-09-07T04:02:33;22.40;51.20
65826;DHT22;52586;-43.152;172.732;2023-09-07T04:05:03;22.40;51.20
65826;DHT22;52586;-43.152;172.732;2023-09-07T04:07:34;22.40;51.00
65826;DHT22;52586;-43.152;172.732;2023-09-07T04:10:07;22.40;51.00
65826;DHT22;52586;-43.152;172.732;2023-09-07T04:12:38;22.50;51.00
65826;DHT22;52586;-43.152;172.732;2023-09-07T04:15:09;22.50;51.00
65826;DHT22;52586;-43.152;172.732;2023-09-07T04:17:40;22.60;51.00
65826;DHT22;52586;-43.152;172.732;2023-09-07T04:20:11;22.60;51.00
65826;DHT22;52586;-43.152;172.732;2023-09-07T04:22:42;22.60;51.00
65826;DHT22;52586;-43.152;172.732;2023-09-07T04:25:14;22.60;51.00
65826;DHT22;52586;-43.152;172.732;2023-09-07T04:27:45;22.70;51.00
65826;DHT22;52586;-43.152;172.732;2023-09-07T04:30:16;22.70;50.90
65826;DHT22;52586;-43.152;172.732;2023-09-07T04:32:52;22.70;50.80
65826;DHT22;52586;-43.152;172.732;2023-09-07T04:35:28;22.70;50.70
65826;DHT22;52586;-43.152;172.732;2023-09-07T04:37:59;22.80;50.60
65826;DHT22;52586;-43.152;172.732;2023-09-07T04:40:32;22.80;50.50
65826;DHT22;52586;-43.152;172.732;2023-09-07T04:43:03;22.80;50.30
65826;DHT22;52586;-43.152;172.732;2023-09-07T04:45:33;22.80;50.20
65826;DHT22;52586;-43.152;172.732;2023-09-07T04:48:04;22.80;50.10
65826;DHT22;52586;-43.152;172.732;2023-09-07T04:50:35;22.90;50.20
65826;DHT22;52586;-43.152;172.732;2023-09-07T04:53:06;22.90;50.20
65826;DHT22;52586;-43.152;172.732;2023-09-07T04:55:40;22.90;50.30
65826;DHT22;52586;-43.152;172.732;2023-09-07T04:58:11;22.90;50.30
65826;DHT22;52586;-43.152;172.732;2023-09-07T05:00:42;23.00;50.30
65826;DHT22;52586;-43.152;172.732;2023-09-07T05:03:12;23.00;50.20
65826;DHT22;52586;-43.152;172.732;2023-09-07T05:05:43;22.90;50.10
65826;DHT22;52586;-43.152;172.732;2023-09-07T05:08:14;22.90;50.00
65826;DHT22;52586;-43.152;172.732;2023-09-07T05:10:46;23.00;49.80
65826;DHT22;52586;-43.152;172.732;2023-09-07T05:13:17;23.00;49.70
65826;DHT22;52586;-43.152;172.732;2023-09-07T05:15:50;22.90;49.50
65826;DHT22;52586;-43.152;172.732;2023-09-07T05:18:22;22.90;49.40
65826;DHT22;52586;-43.152;172.732;2023-09-07T05:20:52;22.90;49.20
65826;DHT22;52586;-43.152;172.732;2023-09-07T05:23:23;22.90;49.10
65826;DHT22;52586;-43.152;172.732;2023-09-07T05:25:56;22.80;48.90
65826;DHT22;52586;-43.152;172.732;2023-09-07T05:28:26;22.80;48.60
65826;DHT22;52586;-43.152;172.732;2023-09-07T05:30:57;22.80;48.40
65826;DHT22;52586;-43.152;172.732;2023-09-07T05:33:28;22.80;48.30
65826;DHT22;52586;-43.152;172.732;2023-09-07T05:35:58;22.80;48.40
65826;DHT22;52586;-43.152;172.732;2023-09-07T05:38:29;22.80;48.40
65826;DHT22;52586;-43.152;172.732;2023-09-07T05:41:02;22.70;48.10
65826;DHT22;52586;-43.152;172.732;2023-09-07T05:43:33;22.70;48.00
65826;DHT22;52586;-43.152;172.732;2023-09-07T05:46:04;22.70;48.00
65826;DHT22;52586;-43.152;172.732;2023-09-07T05:48:34;22.70;48.00
65826;DHT22;52586;-43.152;172.732;2023-09-07T05:51:05;22.60;48.00
65826;DHT22;52586;-43.152;172.732;2023-09-07T05:53:36;22.60;48.00
65826;DHT22;52586;-43.152;172.732;2023-09-07T05:56:08;22.60;48.00
65826;DHT22;52586;-43.152;172.732;2023-09-07T05:58:39;22.60;48.00
65826;DHT22;52586;-43.152;172.732;2023-09-07T06:01:09;22.50;47.90
65826;DHT22;52586;-43.152;172.732;2023-09-07T06:03:40;22.50;47.90
65826;DHT22;52586;-43.152;172.732;2023-09-07T06:06:11;22.40;47.90
65826;DHT22;52586;-43.152;172.732;2023-09-07T06:08:41;22.40;48.00
65826;DHT22;52586;-43.152;172.732;2023-09-07T06:11:14;22.40;48.10
65826;DHT22;52586;-43.152;172.732;2023-09-07T06:13:44;22.40;48.00
65826;DHT22;52586;-43.152;172.732;2023-09-07T06:16:15;22.30;48.00
65826;DHT22;52586;-43.152;172.732;2023-09-07T06:18:46;22.30;48.00
65826;DHT22;52586;-43.152;172.732;2023-09-07T06:21:17;22.30;48.00
65826;DHT22;52586;-43.152;172.732;2023-09-07T06:23:47;22.20;48.00
65826;DHT22;52586;-43.152;172.732;2023-09-07T06:26:20;22.20;48.00
65826;DHT22;52586;-43.152;172.732;2023-09-07T06:28:50;22.20;48.00
65826;DHT22;52586;-43.152;172.732;2023-09-07T06:31:21;22.20;48.10
65826;DHT22;52586;-43.152;172.732;2023-09-07T06:33:51;22.10;48.00
65826;DHT22;52586;-43.152;172.732;2023-09-07T06:36:22;22.10;48.10
65826;DHT22;52586;-43.152;172.732;2023-09-07T06:38:53;22.10;48.10
65826;DHT22;52586;-43.152;172.732;2023-09-07T06:41:25;22.00;48.20
65826;DHT22;52586;-43.152;172.732;2023-09-07T06:43:56;22.00;48.20
65826;DHT22;52586;-43.152;172.732;2023-09-07T06:46:26;22.00;48.30
65826;DHT22;52586;-43.152;172.732;2023-09-07T06:48:57;22.00;48.30
65826;DHT22;52586;-43.152;172.732;2023-09-07T06:51:27;21.90;49.00
65826;DHT22;52586;-43.152;172.732;2023-09-07T06:53:58;21.90;48.40
65826;DHT22;52586;-43.152;172.732;2023-09-07T06:56:31;21.90;48.40
65826;DHT22;52586;-43.152;172.732;2023-09-07T06:59:02;21.80;48.40
65826;DHT22;52586;-43.152;172.732;2023-09-07T07:01:33;21.90;49.10
65826;DHT22;52586;-43.152;172.732;2023-09-07T07:04:03;21.80;48.50
65826;DHT22;52586;-43.152;172.732;2023-09-07T07:06:34;21.80;48.50
65826;DHT22;52586;-43.152;172.732;2023-09-07T07:09:05;21.80;48.50
65826;DHT22;52586;-43.152;172.732;2023-09-07T07:11:38;21.70;48.50
65826;DHT22;52586;-43.152;172.732;2023-09-07T07:14:10;21.70;48.50
65826;DHT22;52586;-43.152;172.732;2023-09-07T07:16:41;21.70;48.50
65826;DHT22;52586;-43.152;172.732;2023-09-07T07:19:11;21.70;48.60
65826;DHT22;52586;-43.152;172.732;2023-09-07T07:21:42;21.70;48.60
65826;DHT22;52586;-43.152;172.732;2023-09-07T07:24:13;21.60;48.60
65826;DHT22;52586;-43.152;172.732;2023-09-07T07:26:46;21.60;49.20
65826;DHT22;52586;-43.152;172.732;2023-09-07T07:29:16;21.60;48.70
65826;DHT22;52586;-43.152;172.732;2023-09-07T07:31:47;21.60;48.70
65826;DHT22;52586;-43.152;172.732;2023-09-07T07:34:18;21.50;48.70
65826;DHT22;52586;-43.152;172.732;2023-09-07T07:36:48;21.50;48.70
65826;DHT22;52586;-43.152;172.732;2023-09-07T07:39:19;21.50;48.80
65826;DHT22;52586;-43.152;172.732;2023-09-07T07:41:52;21.50;48.80
65826;DHT22;52586;-43.152;172.732;2023-09-07T07:44:22;21.50;48.80
65826;DHT22;52586;-43.152;172.732;2023-09-07T07:46:53;21.40;48.80
65826;DHT22;52586;-43.152;172.732;2023-09-07T07:49:24;21.40;48.80
65826;DHT22;52586;-43.152;172.732;2023-09-07T07:51:55;21.40;48.80
65826;DHT22;52586;-43.152;172.732;2023-09-07T07:54:26;21.40;48.90
65826;DHT22;52586;-43.152;172.732;2023-09-07T07:56:58;21.40;48.90
65826;DHT22;52586;-43.152;172.732;2023-09-07T07:59:29;21.30;48.90
65826;DHT22;52586;-43.152;172.732;2023-09-07T08:02:00;21.30;48.90
65826;DHT22;52586;-43.152;172.732;2023-09-07T08:04:30;21.30;48.90
65826;DHT22;52586;-43.152;172.732;2023-09-07T08:07:03;21.30;49.00
65826;DHT22;52586;-43.152;172.732;2023-09-07T08:09:36;21.30;49.00
65826;DHT22;52586;-43.152;172.732;2023-09-07T08:12:08;21.20;49.00
65826;DHT22;52586;-43.152;172.732;2023-09-07T08:14:39;21.20;49.10
65826;DHT22;52586;-43.152;172.732;2023-09-07T08:17:10;21.20;49.20
65826;DHT22;52586;-43.152;172.732;2023-09-07T08:19:41;21.20;49.10
65826;DHT22;52586;-43.152;172.732;2023-09-07T08:22:11;21.20;49.20
65826;DHT22;52586;-43.152;172.732;2023-09-07T08:24:44;21.10;49.10
65826;DHT22;52586;-43.152;172.732;2023-09-07T08:27:18;21.10;49.10
65826;DHT22;52586;-43.152;172.732;2023-09-07T08:29:49;21.10;49.10
65826;DHT22;52586;-43.152;172.732;2023-09-07T08:32:20;21.10;49.10
65826;DHT22;52586;-43.152;172.732;2023-09-07T08:34:50;21.00;49.10
65826;DHT22;52586;-43.152;172.732;2023-09-07T08:37:24;21.00;49.10
65826;DHT22;52586;-43.152;172.732;2023-09-07T08:39:55;21.00;49.20
65826;DHT22;52586;-43.152;172.732;2023-09-07T08:42:28;21.00;49.20
65826;DHT22;52586;-43.152;172.732;2023-09-07T08:45:02;20.90;49.20
65826;DHT22;52586;-43.152;172.732;2023-09-07T08:47:36;20.90;49.20
65826;DHT22;52586;-43.152;172.732;2023-09-07T08:50:07;20.90;49.20
65826;DHT22;52586;-43.152;172.732;2023-09-07T08:52:38;20.90;49.30
65826;DHT22;52586;-43.152;172.732;2023-09-07T08:55:10;20.80;49.30
65826;DHT22;52586;-43.152;172.732;2023-09-07T08:57:43;20.80;49.30
65826;DHT22;52586;-43.152;172.732;2023-09-07T09:00:14;20.80;49.30
65826;DHT22;52586;-43.152;172.732;2023-09-07T09:02:48;20.80;49.40
65826;DHT22;52586;-43.152;172.732;2023-09-07T09:05:20;20.80;49.40
65826;DHT22;52586;-43.152;172.732;2023-09-07T09:08:02;20.80;49.40
65826;DHT22;52586;-43.152;172.732;2023-09-07T09:10:33;20.70;49.40
65826;DHT22;52586;-43.152;172.732;2023-09-07T09:13:06;20.70;49.40
65826;DHT22;52586;-43.152;172.732;2023-09-07T09:15:39;20.70;49.40
65826;DHT22;52586;-43.152;172.732;2023-09-07T09:18:11;20.60;49.40
65826;DHT22;52586;-43.152;172.732;2023-09-07T09:20:42;20.60;49.40
65826;DHT22;52586;-43.152;172.732;2023-09-07T09:23:13;20.60;49.40
65826;DHT22;52586;-43.152;172.732;2023-09-07T09:25:44;20.60;49.60
65826;DHT22;52586;-43.152;172.732;2023-09-07T09:28:16;20.60;49.80
65826;DHT22;52586;-43.152;172.732;2023-09-07T09:30:47;20.50;49.50
65826;DHT22;52586;-43.152;172.732;2023-09-07T09:33:20;20.50;49.60
65826;DHT22;52586;-43.152;172.732;2023-09-07T09:35:51;20.50;49.60
65826;DHT22;52586;-43.152;172.732;2023-09-07T09:38:24;20.50;49.60
65826;DHT22;52586;-43.152;172.732;2023-09-07T09:40:55;20.50;49.70
65826;DHT22;52586;-43.152;172.732;2023-09-07T09:43:28;20.40;49.70
65826;DHT22;52586;-43.152;172.732;2023-09-07T09:45:58;20.40;49.70
65826;DHT22;52586;-43.152;172.732;2023-09-07T09:48:32;20.40;49.70
65826;DHT22;52586;-43.152;172.732;2023-09-07T09:51:05;20.40;49.80
65826;DHT22;52586;-43.152;172.732;2023-09-07T09:53:36;20.40;49.80
65826;DHT22;52586;-43.152;172.732;2023-09-07T09:56:07;20.30;49.70
65826;DHT22;52586;-43.152;172.732;2023-09-07T09:58:40;20.30;49.70
65826;DHT22;52586;-43.152;172.732;2023-09-07T10:01:11;20.30;49.80
65826;DHT22;52586;-43.152;172.732;2023-09-07T10:03:45;20.30;49.90
65826;DHT22;52586;-43.152;172.732;2023-09-07T10:06:22;20.30;49.90
65826;DHT22;52586;-43.152;172.732;2023-09-07T10:09:04;20.20;49.90
65826;DHT22;52586;-43.152;172.732;2023-09-07T10:11:35;20.20;49.90
65826;DHT22;52586;-43.152;172.732;2023-09-07T10:14:09;20.20;49.90
65826;DHT22;52586;-43.152;172.732;2023-09-07T10:16:44;20.20;50.00
65826;DHT22;52586;-43.152;172.732;2023-09-07T10:19:16;20.10;49.90
65826;DHT22;52586;-43.152;172.732;2023-09-07T10:21:47;20.10;49.90
65826;DHT22;52586;-43.152;172.732;2023-09-07T10:24:27;20.10;49.90
65826;DHT22;52586;-43.152;172.732;2023-09-07T10:26:59;20.10;50.00
65826;DHT22;52586;-43.152;172.732;2023-09-07T10:29:41;20.10;50.00
65826;DHT22;52586;-43.152;172.732;2023-09-07T10:32:12;20.00;50.00
65826;DHT22;52586;-43.152;172.732;2023-09-07T10:34:44;20.00;50.00
65826;DHT22;52586;-43.152;172.732;2023-09-07T10:37:15;20.00;50.00
65826;DHT22;52586;-43.152;172.732;2023-09-07T10:39:46;20.00;50.00
65826;DHT22;52586;-43.152;172.732;2023-09-07T10:42:23;19.90;50.00
65826;DHT22;52586;-43.152;172.732;2023-09-07T10:44:55;19.90;50.00
65826;DHT22;52586;-43.152;172.732;2023-09-07T10:47:26;19.90;50.00
65826;DHT22;52586;-43.152;172.732;2023-09-07T10:49:58;19.90;50.10
65826;DHT22;52586;-43.152;172.732;2023-09-07T10:52:30;19.90;50.10
65826;DHT22;52586;-43.152;172.732;2023-09-07T10:55:00;19.80;50.10
65826;DHT22;52586;-43.152;172.732;2023-09-07T10:57:31;19.80;50.10
65826;DHT22;52586;-43.152;172.732;2023-09-07T11:00:04;19.80;50.20
65826;DHT22;52586;-43.152;172.732;2023-09-07T11:02:38;19.80;50.20
65826;DHT22;52586;-43.152;172.732;2023-09-07T11:05:09;19.80;50.10
65826;DHT22;52586;-43.152;172.732;2023-09-07T11:07:40;19.70;50.10
65826;DHT22;52586;-43.152;172.732;2023-09-07T11:10:11;19.70;50.10
65826;DHT22;52586;-43.152;172.732;2023-09-07T11:12:42;19.70;50.10
65826;DHT22;52586;-43.152;172.732;2023-09-07T11:15:14;19.70;50.20
65826;DHT22;52586;-43.152;172.732;2023-09-07T11:17:45;19.70;50.20
65826;DHT22;52586;-43.152;172.732;2023-09-07T11:20:16;19.60;50.10
65826;DHT22;52586;-43.152;172.732;2023-09-07T11:22:51;19.60;50.20
65826;DHT22;52586;-43.152;172.732;2023-09-07T11:25:22;19.60;50.20
65826;DHT22;52586;-43.152;172.732;2023-09-07T11:27:53;19.60;50.20
65826;DHT22;52586;-43.152;172.732;2023-09-07T11:30:27;19.60;50.30
65826;DHT22;52586;-43.152;172.732;2023-09-07T11:33:07;19.50;50.30
65826;DHT22;52586;-43.152;172.732;2023-09-07T11:35:38;19.50;50.30
65826;DHT22;52586;-43.152;172.732;2023-09-07T11:38:12;19.50;50.30
65826;DHT22;52586;-43.152;172.732;2023-09-07T11:40:43;19.50;50.30
65826;DHT22;52586;-43.152;172.732;2023-09-07T11:43:14;19.50;50.30
65826;DHT22;52586;-43.152;172.732;2023-09-07T11:45:48;19.50;50.30
65826;DHT22;52586;-43.152;172.732;2023-09-07T11:48:19;19.50;50.40
65826;DHT22;52586;-43.152;172.732;2023-09-07T11:50:49;19.40;50.30
65826;DHT22;52586;-43.152;172.732;2023-09-07T11:53:20;19.40;50.40
65826;DHT22;52586;-43.152;172.732;2023-09-07T11:55:51;19.40;50.30
65826;DHT22;52586;-43.152;172.732;2023-09-07T11:58:22;19.40;50.30
65826;DHT22;52586;-43.152;172.732;2023-09-07T12:00:55;19.30;50.30
65826;DHT22;52586;-43.152;172.732;2023-09-07T12:03:25;19.40;50.40
65826;DHT22;52586;-43.152;172.732;2023-09-07T12:05:57;19.30;50.40
65826;DHT22;52586;-43.152;172.732;2023-09-07T12:08:28;19.30;50.40
65826;DHT22;52586;-43.152;172.732;2023-09-07T12:10:59;19.30;50.40
65826;DHT22;52586;-43.152;172.732;2023-09-07T12:13:29;19.30;50.40
65826;DHT22;52586;-43.152;172.732;2023-09-07T12:16:02;19.20;50.40
65826;DHT22;52586;-43.152;172.732;2023-09-07T12:18:33;19.20;50.40
65826;DHT22;52586;-43.152;172.732;2023-09-07T12:21:03;19.30;50.50
65826;DHT22;52586;-43.152;172.732;2023-09-07T12:23:34;19.20;50.40
65826;DHT22;52586;-43.152;172.732;2023-09-07T12:26:05;19.20;50.50
65826;DHT22;52586;-43.152;172.732;2023-09-07T12:28:36;19.20;50.50
65826;DHT22;52586;-43.152;172.732;2023-09-07T12:31:08;19.20;50.50
65826;DHT22;52586;-43.152;172.732;2023-09-07T12:33:39;19.20;50.50
65826;DHT22;52586;-43.152;172.732;2023-09-07T12:36:10;19.10;50.50
65826;DHT22;52586;-43.152;172.732;2023-09-07T12:38:56;19.10;50.50
65826;DHT22;52586;-43.152;172.732;2023-09-07T12:41:29;19.10;50.50
65826;DHT22;52586;-43.152;172.732;2023-09-07T12:44:00;19.10;50.50
65826;DHT22;52586;-43.152;172.732;2023-09-07T12:46:33;19.00;50.50
65826;DHT22;52586;-43.152;172.732;2023-09-07T12:49:04;19.00;50.50
65826;DHT22;52586;-43.152;172.732;2023-09-07T12:51:35;19.00;50.60
65826;DHT22;52586;-43.152;172.732;2023-09-07T12:54:06;19.00;50.60
65826;DHT22;52586;-43.152;172.732;2023-09-07T12:56:36;19.00;50.60
65826;DHT22;52586;-43.152;172.732;2023-09-07T12:59:07;19.00;50.60
65826;DHT22;52586;-43.152;172.732;2023-09-07T13:01:40;18.90;50.60
65826;DHT22;52586;-43.152;172.732;2023-09-07T13:04:10;18.90;50.60
65826;DHT22;52586;-43.152;172.732;2023-09-07T13:06:41;18.90;50.60
65826;DHT22;52586;-43.152;172.732;2023-09-07T13:09:12;18.90;50.60
65826;DHT22;52586;-43.152;172.732;2023-09-07T13:11:42;18.90;50.60
65826;DHT22;52586;-43.152;172.732;2023-09-07T13:14:13;18.80;50.60
65826;DHT22;52586;-43.152;172.732;2023-09-07T13:16:45;18.80;50.80
65826;DHT22;52586;-43.152;172.732;2023-09-07T13:19:16;18.80;50.70
65826;DHT22;52586;-43.152;172.732;2023-09-07T13:21:46;18.80;50.70
65826;DHT22;52586;-43.152;172.732;2023-09-07T13:24:17;18.80;50.70
65826;DHT22;52586;-43.152;172.732;2023-09-07T13:26:48;18.80;50.80
65826;DHT22;52586;-43.152;172.732;2023-09-07T13:29:19;18.70;50.70
65826;DHT22;52586;-43.152;172.732;2023-09-07T13:31:51;18.70;50.70
65826;DHT22;52586;-43.152;172.732;2023-09-07T13:34:22;18.70;50.80
65826;DHT22;52586;-43.152;172.732;2023-09-07T13:36:53;18.70;50.70
65826;DHT22;52586;-43.152;172.732;2023-09-07T13:39:24;18.70;50.70
65826;DHT22;52586;-43.152;172.732;2023-09-07T13:41:54;18.70;50.80
65826;DHT22;52586;-43.152;172.732;2023-09-07T13:44:25;18.60;50.70
65826;DHT22;52586;-43.152;172.732;2023-09-07T13:46:58;18.60;50.80
65826;DHT22;52586;-43.152;172.732;2023-09-07T13:49:28;18.60;50.80
65826;DHT22;52586;-43.152;172.732;2023-09-07T13:51:59;18.60;50.80
65826;DHT22;52586;-43.152;172.732;2023-09-07T13:54:30;18.60;50.80
65826;DHT22;52586;-43.152;172.732;2023-09-07T13:57:00;18.50;50.80
65826;DHT22;52586;-43.152;172.732;2023-09-07T13:59:31;18.50;50.70
65826;DHT22;52586;-43.152;172.732;2023-09-07T14:02:04;18.50;50.70
65826;DHT22;52586;-43.152;172.732;2023-09-07T14:04:34;18.50;50.80
65826;DHT22;52586;-43.152;172.732;2023-09-07T14:07:05;18.50;50.80
65826;DHT22;52586;-43.152;172.732;2023-09-07T14:09:36;18.50;50.80
65826;DHT22;52586;-43.152;172.732;2023-09-07T14:12:07;18.40;50.80
65826;DHT22;52586;-43.152;172.732;2023-09-07T14:14:38;18.40;50.80
65826;DHT22;52586;-43.152;172.732;2023-09-07T14:17:10;18.40;50.80
65826;DHT22;52586;-43.152;172.732;2023-09-07T14:19:41;18.40;50.80
65826;DHT22;52586;-43.152;172.732;2023-09-07T14:22:13;18.40;50.90
65826;DHT22;52586;-43.152;172.732;2023-09-07T14:24:43;18.40;50.90
65826;DHT22;52586;-43.152;172.732;2023-09-07T14:27:14;18.30;50.80
65826;DHT22;52586;-43.152;172.732;2023-09-07T14:29:45;18.30;50.80
65826;DHT22;52586;-43.152;172.732;2023-09-07T14:32:17;18.30;50.80
65826;DHT22;52586;-43.152;172.732;2023-09-07T14:34:48;18.30;50.80
65826;DHT22;52586;-43.152;172.732;2023-09-07T14:37:18;18.30;50.80
65826;DHT22;52586;-43.152;172.732;2023-09-07T14:39:49;18.20;50.80
65826;DHT22;52586;-43.152;172.732;2023-09-07T14:42:25;18.30;50.90
65826;DHT22;52586;-43.152;172.732;2023-09-07T14:44:56;18.20;50.90
65826;DHT22;52586;-43.152;172.732;2023-09-07T14:47:31;18.20;50.90
65826;DHT22;52586;-43.152;172.732;2023-09-07T14:50:01;18.20;50.90
65826;DHT22;52586;-43.152;172.732;2023-09-07T14:52:32;18.10;50.90
65826;DHT22;52586;-43.152;172.732;2023-09-07T14:55:08;18.20;50.90
65826;DHT22;52586;-43.152;172.732;2023-09-07T14:57:39;18.10;50.90
65826;DHT22;52586;-43.152;172.732;2023-09-07T15:00:12;18.10;50.90
65826;DHT22;52586;-43.152;172.732;2023-09-07T15:02:44;18.10;50.90
65826;DHT22;52586;-43.152;172.732;2023-09-07T15:05:15;18.10;50.80
65826;DHT22;52586;-43.152;172.732;2023-09-07T15:07:46;18.00;50.80
65826;DHT22;52586;-43.152;172.732;2023-09-07T15:10:16;18.00;51.40
65826;DHT22;52586;-43.152;172.732;2023-09-07T15:12:47;18.00;50.80